Time;durP1;ratioP1;P1;durP2;ratioP2;P2;SDS_P1;SDS_P2;PMS_P1;PMS_P2;Temp;Humidity;BMP_temperature;BMP_pressure;BME280_temperature;BME280_humidity;BME280_pressure;Samples;Min_cycle;Max_cycle;Signal;HPM_P1;HPM_P2
2022/04/26 03:37:22;;;;;;;93.78;45.47;;;7.20;99.90;;;;;;5070636;28;20510;-85
2022/04/26 03:39:47;;;;;;;130.68;63.00;;;7.20;99.90;;;;;;5054639;28;20029;-85
2022/04/26 03:42:13;;;;;;;152.50;77.57;;;7.10;99.90;;;;;;5054891;28;20032;-85
2022/04/26 03:44:40;;;;;;;124.45;61.67;;;7.10;99.90;;;;;;5054805;28;20109;-85
2022/04/26 03:47:06;;;;;;;117.80;54.45;;;7.20;99.90;;;;;;5054897;28;20517;-85
2022/04/26 03:49:32;;;;;;;107.45;48.42;;;7.20;99.90;;;;;;5054954;28;20392;-85
2022/04/26 03:51:58;;;;;;;121.70;53.08;;;7.20;99.90;;;;;;5071472;28;20031;-85
2022/04/26 03:54:24;;;;;;;118.93;51.72;;;7.20;99.90;;;;;;5054549;28;20024;-85
2022/04/26 03:56:50;;;;;;;101.72;46.70;;;7.20;99.90;;;;;;5054235;28;20105;-85
2022/04/26 03:59:16;;;;;;;109.63;48.60;;;7.20;99.90;;;;;;5056196;28;20040;-86
2022/04/26 04:01:42;;;;;;;94.13;42.97;;;7.20;99.90;;;;;;5070629;28;20063;-85
2022/04/26 04:04:08;;;;;;;100.97;45.90;;;7.20;99.90;;;;;;5054097;28;20484;-85
2022/04/26 04:06:34;;;;;;;106.40;45.63;;;7.30;99.90;;;;;;5054212;28;20028;-85
2022/04/26 04:09:01;;;;;;;97.10;43.65;;;7.20;99.90;;;;;;5054552;28;20037;-85
2022/04/26 04:11:26;;;;;;;102.00;45.65;;;7.20;99.90;;;;;;5053975;28;20032;-85
2022/04/26 04:13:52;;;;;;;99.68;44.53;;;7.20;99.90;;;;;;5054154;28;20094;-84
2022/04/26 04:16:18;;;;;;;113.65;48.05;;;7.20;99.90;;;;;;5070785;28;20025;-84
2022/04/26 04:21:28;;;;;;;115.45;51.45;;;7.20;99.90;;;;;;5074547;28;20472;-83
2022/04/26 04:23:53;;;;;;;108.88;47.70;;;7.10;99.90;;;;;;5057957;28;20052;-83
2022/04/26 04:26:19;;;;;;;123.70;53.28;;;7.10;99.90;;;;;;5074186;28;20028;-84
2022/04/26 04:28:45;;;;;;;103.38;47.60;;;7.10;99.90;;;;;;5074445;28;20028;-84
2022/04/26 04:31:11;;;;;;;113.25;50.35;;;7.00;99.90;;;;;;5057742;28;20673;-84
2022/04/26 04:33:39;;;;;;;108.93;48.45;;;7.00;99.90;;;;;;5057579;28;20029;-84
2022/04/26 04:36:05;;;;;;;109.50;46.80;;;7.00;99.90;;;;;;5057277;28;20409;-84
2022/04/26 04:38:31;;;;;;;104.38;44.58;;;7.00;99.90;;;;;;5056010;28;20029;-84
2022/04/26 04:40:57;;;;;;;94.60;44.05;;;7.00;99.90;;;;;;5056163;28;20086;-84
2022/04/26 04:43:22;;;;;;;83.90;43.33;;;7.00;99.90;;;;;;5070266;28;20025;-84
2022/04/26 04:45:48;;;;;;;98.07;44.67;;;6.90;99.90;;;;;;5073017;28;20749;-84
2022/04/26 04:48:15;;;;;;;89.82;42.72;;;6.90;99.90;;;;;;5056833;28;20805;-84
2022/04/26 04:50:40;;;;;;;90.10;44.38;;;7.00;99.90;;;;;;5073401;28;20162;-84
2022/04/26 04:53:06;;;;;;;88.32;42.60;;;7.00;99.90;;;;;;5056932;28;20059;-84
2022/04/26 04:55:53;;;;;;;91.05;41.58;;;7.00;99.90;;;;;;5052644;28;20028;-84
2022/04/26 04:58:19;;;;;;;99.40;46.00;;;7.00;99.90;;;;;;5075070;28;20029;-84
2022/04/26 05:00:45;;;;;;;117.93;52.30;;;7.00;99.90;;;;;;5056673;28;20047;-84
2022/04/26 05:03:11;;;;;;;118.35;48.50;;;7.10;99.90;;;;;;5056899;28;20067;-84
2022/04/26 05:05:36;;;;;;;101.40;44.20;;;7.10;99.90;;;;;;5073136;28;20029;-84
2022/04/26 05:08:27;;;;;;;84.00;40.60;;;7.20;99.90;;;;;;5056742;28;20039;-84
2022/04/26 05:10:53;;;;;;;81.22;39.80;;;7.20;99.90;;;;;;5056741;28;20062;-84
2022/04/26 05:13:19;;;;;;;87.95;40.05;;;7.20;99.90;;;;;;5073751;28;20824;-83
2022/04/26 05:15:45;;;;;;;92.03;39.28;;;7.20;99.90;;;;;;5056711;28;20035;-84
2022/04/26 05:18:14;;;;;;;76.70;35.17;;;7.20;99.90;;;;;;5056835;28;20028;-84
2022/04/26 05:20:40;;;;;;;75.43;34.97;;;7.20;99.90;;;;;;5073365;28;20040;-84
2022/04/26 05:25:49;;;;;;;83.53;38.75;;;7.20;99.90;;;;;;5072871;28;20055;-84
2022/04/26 05:28:15;;;;;;;81.80;38.25;;;7.20;99.90;;;;;;5072486;28;20516;-84
2022/04/26 05:30:42;;;;;;;84.60;39.88;;;7.20;99.90;;;;;;5056041;28;20109;-84
2022/04/26 05:33:08;;;;;;;76.50;37.42;;;7.30;99.90;;;;;;5073075;28;20032;-84
2022/04/26 05:35:34;;;;;;;58.17;30.00;;;7.30;99.90;;;;;;5072553;28;20036;-84
2022/04/26 05:37:59;;;;;;;56.95;29.05;;;7.20;99.90;;;;;;5072809;28;20039;-84
2022/04/26 05:40:25;;;;;;;45.88;25.60;;;7.10;99.90;;;;;;5055846;28;20041;-84
2022/04/26 05:42:51;;;;;;;50.22;27.48;;;7.20;99.90;;;;;;5072778;28;20029;-84
2022/04/26 05:45:41;;;;;;;55.50;27.33;;;7.10;99.90;;;;;;5055710;28;20028;-83
2022/04/26 05:48:07;;;;;;;50.78;27.08;;;7.10;99.90;;;;;;5055867;28;20028;-85
2022/04/26 05:50:33;;;;;;;55.38;28.52;;;7.10;99.90;;;;;;5055933;28;20031;-84
2022/04/26 05:52:59;;;;;;;53.20;29.75;;;7.20;99.90;;;;;;5072420;28;20070;-84
2022/04/26 05:55:25;;;;;;;66.43;33.20;;;7.30;99.90;;;;;;5066958;28;20028;-83
2022/04/26 05:57:50;;;;;;;52.85;29.83;;;7.40;99.90;;;;;;5071210;28;20051;-83
2022/04/26 06:00:17;;;;;;;60.40;31.90;;;7.40;99.90;;;;;;5068056;28;20434;-84
2022/04/26 06:02:43;;;;;;;61.00;34.30;;;7.60;99.90;;;;;;5055868;28;20078;-83
2022/04/26 06:05:10;;;;;;;67.55;34.20;;;7.70;99.90;;;;;;5055388;28;20025;-83
2022/04/26 06:07:36;;;;;;;50.80;28.27;;;7.70;99.90;;;;;;5051911;28;20485;-83
2022/04/26 06:10:03;;;;;;;40.47;25.63;;;7.70;99.90;;;;;;5055446;28;20106;-83
2022/04/26 06:12:28;;;;;;;46.53;27.45;;;7.80;99.90;;;;;;5055340;28;20809;-83
2022/04/26 06:14:59;;;;;;;40.83;24.45;;;7.80;99.90;;;;;;5072521;28;20029;-83
2022/04/26 06:17:26;;;;;;;;;;;7.80;99.90;;;;;;5056196;28;20158;-83
2022/04/26 06:19:52;;;;;;;25.63;15.77;;;7.90;99.90;;;;;;5055919;28;19908;-83
2022/04/26 06:22:18;;;;;;;27.73;17.90;;;7.90;99.90;;;;;;5055559;28;20074;-83
2022/04/26 06:24:44;;;;;;;28.85;18.48;;;7.80;99.90;;;;;;5055526;28;20032;-84
2022/04/26 06:27:10;;;;;;;28.35;18.00;;;7.80;99.90;;;;;;5055099;28;20125;-83
2022/04/26 06:29:36;;;;;;;26.63;17.90;;;7.80;99.90;;;;;;5055036;28;20029;-83
2022/04/26 06:32:02;;;;;;;24.83;17.15;;;7.80;99.90;;;;;;5055146;28;20040;-83
2022/04/26 06:34:28;;;;;;;26.83;17.40;;;7.90;99.90;;;;;;5071730;28;20036;-83
2022/04/26 06:36:54;;;;;;;23.55;15.45;;;8.10;99.90;;;;;;5055076;28;20039;-83
2022/04/26 06:39:20;;;;;;;20.92;15.07;;;8.20;99.90;;;;;;5055145;28;20383;-83
2022/04/26 06:41:46;;;;;;;23.85;15.73;;;8.50;99.90;;;;;;5054325;28;20106;-83
2022/04/26 06:44:14;;;;;;;20.58;13.88;;;8.50;99.90;;;;;;5071073;28;20025;-83
2022/04/26 06:46:40;;;;;;;23.88;15.77;;;8.50;99.90;;;;;;5055159;28;20025;-83
2022/04/26 06:49:06;;;;;;;29.45;16.33;;;8.50;99.90;;;;;;5054868;28;20819;-84
2022/04/26 06:51:40;;;;;;;22.90;16.20;;;8.50;99.90;;;;;;5054852;28;20036;-84
2022/04/26 06:54:07;;;;;;;20.33;14.93;;;8.60;99.90;;;;;;5071357;28;20028;-83
2022/04/26 06:56:33;;;;;;;19.13;14.10;;;8.60;99.90;;;;;;5071413;28;20028;-83
2022/04/26 06:58:58;;;;;;;20.52;13.93;;;8.70;99.90;;;;;;5054902;28;20037;-83
2022/04/26 07:01:24;;;;;;;20.42;14.93;;;8.70;99.90;;;;;;5054789;28;20029;-83
2022/04/26 07:03:50;;;;;;;25.35;17.77;;;8.60;99.90;;;;;;5038574;28;20510;-83
2022/04/26 07:06:16;;;;;;;60.95;37.10;;;8.60;99.90;;;;;;5055033;28;20032;-83
2022/04/26 07:08:42;;;;;;;41.30;27.60;;;8.40;99.90;;;;;;5071851;28;20028;-83
2022/04/26 07:11:08;;;;;;;35.45;23.10;;;8.30;99.90;;;;;;5055131;28;20542;-83
2022/04/26 07:13:34;;;;;;;40.70;24.05;;;8.30;99.90;;;;;;5054896;28;20072;-83
2022/04/26 07:16:00;;;;;;;33.40;21.25;;;8.30;99.90;;;;;;5071066;28;20523;-83
2022/04/26 07:18:26;;;;;;;33.83;22.00;;;8.20;99.90;;;;;;5054513;28;20043;-83
2022/04/26 07:20:52;;;;;;;33.55;21.63;;;8.10;99.90;;;;;;5050635;28;20051;-83
2022/04/26 07:23:18;;;;;;;31.05;20.35;;;8.10;99.90;;;;;;5055231;28;20079;-83
2022/04/26 07:25:43;;;;;;;37.75;22.77;;;8.20;99.90;;;;;;5054354;28;20028;-83
2022/04/26 07:28:09;;;;;;;35.25;21.20;;;8.10;99.90;;;;;;5072776;28;20108;-83
2022/04/26 07:30:35;;;;;;;33.88;21.33;;;8.10;99.90;;;;;;5054886;28;20036;-83
2022/04/26 07:35:53;;;;;;;33.33;21.73;;;8.20;99.90;;;;;;5071745;28;20437;-83
2022/04/26 07:38:19;;;;;;;34.75;21.73;;;8.20;99.90;;;;;;5071469;28;20116;-83
2022/04/26 07:40:45;;;;;;;34.17;21.08;;;8.20;99.90;;;;;;5054866;28;20152;-83
2022/04/26 07:43:11;;;;;;;39.25;24.00;;;8.10;99.90;;;;;;5071679;28;20033;-83
2022/04/26 07:45:41;;;;;;;34.72;21.98;;;8.10;99.90;;;;;;5054762;28;20028;-83
2022/04/26 07:48:08;;;;;;;34.88;21.95;;;8.20;99.90;;;;;;5054641;28;20141;-83
2022/04/26 07:50:35;;;;;;;28.65;19.88;;;8.30;99.90;;;;;;5071317;28;20036;-83
2022/04/26 07:53:01;;;;;;;31.58;20.58;;;8.30;99.90;;;;;;5054285;28;20048;-83
2022/04/26 07:55:28;;;;;;;29.20;19.02;;;8.50;99.90;;;;;;5058277;28;20040;-83
2022/04/26 07:57:54;;;;;;;26.35;17.30;;;8.50;99.90;;;;;;5075478;28;20024;-83
2022/04/26 08:00:19;;;;;;;27.15;18.55;;;8.50;99.90;;;;;;5075164;28;20044;-82
2022/04/26 08:02:45;;;;;;;18.70;13.15;;;8.40;99.90;;;;;;5075179;28;20391;-83
2022/04/26 08:05:14;;;;;;;18.52;12.48;;;8.40;99.90;;;;;;5058414;28;20460;-83
2022/04/26 08:07:41;;;;;;;16.27;11.38;;;8.20;99.90;;;;;;5058354;28;20040;-83
2022/04/26 08:10:12;;;;;;;21.52;14.98;;;8.10;99.90;;;;;;5074657;28;20036;-83
2022/04/26 08:12:42;;;;;;;18.95;13.05;;;8.20;99.90;;;;;;5074759;28;20032;-83
2022/04/26 08:15:10;;;;;;;18.05;12.10;;;8.30;99.90;;;;;;5056233;28;20067;-83
2022/04/26 08:17:36;;;;;;;18.75;13.60;;;8.30;99.90;;;;;;5058446;28;20499;-83
2022/04/26 08:20:06;;;;;;;17.80;12.57;;;8.40;99.90;;;;;;5059086;28;20028;-83
2022/04/26 08:22:32;;;;;;;15.90;11.57;;;8.70;99.90;;;;;;5058458;28;20032;-83
2022/04/26 08:27:43;;;;;;;14.32;10.40;;;9.20;99.90;;;;;;5071885;28;20039;-84
2022/04/26 08:30:11;;;;;;;12.90;9.95;;;9.40;99.90;;;;;;5074493;28;20111;-83
2022/04/26 08:32:45;;;;;;;15.93;10.82;;;9.60;99.90;;;;;;5074597;28;20028;-83
2022/04/26 08:35:17;;;;;;;19.80;11.68;;;9.90;99.90;;;;;;5057940;28;20029;-82
2022/04/26 08:37:43;;;;;;;14.65;10.27;;;10.10;99.90;;;;;;5075844;28;20029;-83
2022/04/26 08:40:09;;;;;;;16.90;11.45;;;9.90;99.90;;;;;;5074470;28;20483;-83
2022/04/26 08:42:36;;;;;;;17.92;12.80;;;9.80;99.90;;;;;;5057971;28;20089;-83
2022/04/26 08:45:04;;;;;;;20.77;12.85;;;9.60;99.90;;;;;;5074456;28;20032;-83
2022/04/26 08:53:04;;;;;;;18.02;13.10;;;9.70;99.90;;;;;;5074786;28;20032;-83
2022/04/26 08:55:33;;;;;;;27.98;17.98;;;9.60;99.90;;;;;;5074235;28;20060;-83
2022/04/26 08:57:59;;;;;;;29.52;18.88;;;9.40;99.90;;;;;;5057283;28;20032;-83
2022/04/26 09:00:25;;;;;;;28.10;17.83;;;9.40;99.90;;;;;;5057219;28;20045;-83
2022/04/26 09:03:03;;;;;;;28.73;18.63;;;9.60;99.90;;;;;;5073694;28;20032;-82
2022/04/26 09:05:29;;;;;;;29.88;19.23;;;9.90;99.90;;;;;;5056293;28;20056;-82
2022/04/26 09:07:56;;;;;;;34.45;22.05;;;9.90;99.90;;;;;;5075177;28;20032;-82
2022/04/26 09:10:22;;;;;;;35.13;22.40;;;9.90;99.90;;;;;;5071777;28;20480;-82
2022/04/26 09:13:09;;;;;;;27.25;18.63;;;9.90;99.90;;;;;;5074127;28;20572;-82
2022/04/26 09:15:56;;;;;;;24.05;14.75;;;9.50;99.90;;;;;;5057173;28;20063;-82
2022/04/26 09:18:26;;;;;;;19.17;11.88;;;9.40;99.90;;;;;;5057391;28;20483;-81
2022/04/26 09:20:53;;;;;;;16.55;11.52;;;9.40;99.90;;;;;;5073896;28;20375;-82
2022/04/26 09:23:27;;;;;;;14.30;11.35;;;9.40;99.90;;;;;;5057146;28;20031;-82
2022/04/26 09:26:06;;;;;;;17.88;11.25;;;9.30;99.90;;;;;;5053827;28;20139;-82
2022/04/26 09:28:32;;;;;;;16.20;12.60;;;9.00;99.90;;;;;;5054232;28;20693;-82
2022/04/26 09:30:57;;;;;;;16.52;11.43;;;9.00;99.90;;;;;;5075050;28;20031;-83
2022/04/26 09:33:37;;;;;;;16.25;10.70;;;9.40;99.90;;;;;;5056769;28;20456;-82
2022/04/26 09:36:06;;;;;;;15.75;11.05;;;9.60;99.90;;;;;;5056938;28;20123;-82
2022/04/26 09:38:32;;;;;;;16.30;10.32;;;9.60;99.90;;;;;;5057143;28;20039;-82
2022/04/26 09:41:01;;;;;;;17.30;11.57;;;9.60;99.90;;;;;;5056392;28;20040;-82
2022/04/26 09:43:28;;;;;;;13.73;9.70;;;9.70;99.90;;;;;;5073461;28;20020;-83
2022/04/26 09:45:56;;;;;;;11.68;9.00;;;9.80;99.90;;;;;;5073082;28;20534;-83
2022/04/26 09:48:35;;;;;;;12.40;8.95;;;9.90;99.90;;;;;;5056768;28;20060;-83
2022/04/26 09:51:03;;;;;;;14.23;9.18;;;10.30;99.90;;;;;;5053634;28;20545;-81
2022/04/26 09:53:32;;;;;;;12.32;8.07;;;10.70;99.90;;;;;;5073028;28;20093;-82
2022/04/26 09:56:00;;;;;;;13.50;8.63;;;11.10;99.90;;;;;;5056296;28;20373;-83
2022/04/26 09:58:27;;;;;;;11.30;8.65;;;11.40;99.90;;;;;;5056258;28;20033;-83
2022/04/26 10:00:55;;;;;;;9.55;6.82;;;11.70;99.90;;;;;;5072091;28;20028;-83
2022/04/26 10:03:37;;;;;;;9.05;6.43;;;12.80;99.90;;;;;;5054184;28;20028;-83
2022/04/26 10:06:08;;;;;;;9.75;6.63;;;13.70;99.90;;;;;;5072706;28;20495;-83
2022/04/26 10:08:35;;;;;;;7.60;6.22;;;14.10;99.90;;;;;;5072810;28;20074;-84
2022/04/26 10:11:03;;;;;;;7.53;5.50;;;14.20;99.90;;;;;;5056227;28;20044;-83
2022/04/26 10:13:36;;;;;;;13.35;7.30;;;13.90;99.90;;;;;;5056438;28;20033;-83
2022/04/26 10:16:06;;;;;;;13.00;7.22;;;12.50;99.90;;;;;;5072338;28;20662;-83
2022/04/26 10:18:45;;;;;;;8.98;6.25;;;11.80;99.90;;;;;;5054532;28;20663;-84
2022/04/26 10:21:23;;;;;;;8.30;6.65;;;11.60;99.90;;;;;;5055737;28;20028;-83
2022/04/26 10:23:52;;;;;;;12.55;6.40;;;11.60;99.90;;;;;;5070276;28;20430;-83
2022/04/26 10:26:23;;;;;;;7.25;6.30;;;12.10;99.90;;;;;;5072941;28;20028;-83
2022/04/26 10:28:59;;;;;;;;;;;13.30;99.90;;;;;;5072102;28;20388;-83
2022/04/26 10:31:35;;;;;;;7.72;5.30;;;14.30;99.90;;;;;;5072276;28;20252;-83
2022/04/26 10:34:14;;;;;;;7.03;5.57;;;14.80;99.90;;;;;;5055724;28;20033;-83
2022/04/26 10:36:41;;;;;;;7.70;6.30;;;13.80;99.90;;;;;;5072457;28;20079;-83
2022/04/26 10:39:09;;;;;;;11.73;6.68;;;12.90;99.90;;;;;;5073718;28;20047;-83
2022/04/26 10:41:46;;;;;;;6.70;6.00;;;12.10;99.90;;;;;;5055575;28;20046;-83
2022/04/26 10:44:21;;;;;;;7.75;6.10;;;11.70;99.90;;;;;;5055565;28;20040;-83
2022/04/26 10:46:51;;;;;;;6.70;5.30;;;12.00;99.90;;;;;;5071919;28;20058;-83
2022/04/26 10:49:40;;;;;;;7.75;5.60;;;13.60;99.90;;;;;;5055489;28;20498;-83
2022/04/26 10:52:17;;;;;;;7.43;5.63;;;14.10;99.90;;;;;;5059255;28;20047;-83
2022/04/26 10:57:23;;;;;;;8.38;6.05;;;12.90;99.90;;;;;;5071817;28;20033;-83
2022/04/26 10:59:53;;;;;;;10.38;6.18;;;12.10;99.90;;;;;;5054913;28;20094;-82
2022/04/26 11:02:21;;;;;;;7.95;5.97;;;11.80;99.90;;;;;;5071844;28;20068;-82
2022/04/26 11:04:59;;;;;;;7.60;5.93;;;12.10;99.90;;;;;;5072244;28;20472;-82
2022/04/26 11:07:26;;;;;;;7.95;5.85;;;12.40;99.90;;;;;;5072047;28;20036;-82
2022/04/26 11:09:54;;;;;;;8.10;5.80;;;12.80;99.90;;;;;;5072216;28;20137;-83
2022/04/26 11:12:22;;;;;;;7.57;5.90;;;13.30;99.90;;;;;;5055219;28;20032;-82
2022/04/26 11:14:49;;;;;;;6.82;5.80;;;13.20;99.90;;;;;;5055043;28;20177;-83
2022/04/26 11:17:17;;;;;;;7.95;6.05;;;13.20;99.90;;;;;;5071460;28;20061;-82
2022/04/26 11:19:51;;;;;;;10.50;6.05;;;12.90;99.90;;;;;;5055072;28;20044;-83
2022/04/26 11:22:18;;;;;;;8.43;6.25;;;12.70;99.90;;;;;;5071772;28;20043;-83
2022/04/26 11:30:29;;;;;;;8.05;6.40;;;14.70;99.90;;;;;;5076763;28;20025;-82
2022/04/26 11:33:05;;;;;;;6.18;5.40;;;14.90;99.90;;;;;;5075909;28;20031;-83
2022/04/26 11:35:32;;;;;;;5.70;5.07;;;14.70;99.90;;;;;;5058678;28;20025;-83
2022/04/26 11:38:03;;;;;;;8.77;5.55;;;14.80;99.90;;;;;;5058731;28;20020;-83
2022/04/26 11:40:34;;;;;;;6.20;4.53;;;14.30;99.90;;;;;;5075312;28;20029;-82
2022/04/26 11:43:13;;;;;;;5.20;4.65;;;13.70;99.90;;;;;;5058288;28;20468;-83
2022/04/26 11:45:40;;;;;;;8.38;5.30;;;12.90;99.90;;;;;;5058282;28;20556;-83
2022/04/26 11:48:12;;;;;;;7.47;5.65;;;12.50;99.90;;;;;;5058250;28;20033;-83
2022/04/26 11:50:38;;;;;;;;;;;12.00;99.90;;;;;;5059179;28;20427;-82
2022/04/26 11:53:12;;;;;;;10.40;6.07;;;11.80;99.90;;;;;;5058896;28;19908;-83
2022/04/26 11:55:43;;;;;;;8.52;6.20;;;11.70;99.90;;;;;;5075074;28;20032;-83
2022/04/26 11:58:16;;;;;;;7.73;5.73;;;11.40;99.90;;;;;;5058359;28;20036;-82
2022/04/26 12:01:03;;;;;;;9.73;6.60;;;11.00;99.90;;;;;;5074548;28;20294;-83
2022/04/26 12:03:52;;;;;;;10.75;6.90;;;10.60;99.90;;;;;;5058167;28;20383;-83
2022/04/26 12:06:31;;;;;;;11.63;6.65;;;10.30;99.90;;;;;;5057925;28;20032;-83
2022/04/26 12:08:59;;;;;;;10.32;7.20;;;10.10;99.90;;;;;;5074784;28;20078;-82
2022/04/26 12:11:30;;;;;;;8.20;6.93;;;10.00;99.90;;;;;;5075022;28;20039;-83
2022/04/26 12:14:01;;;;;;;12.68;9.13;;;10.00;99.90;;;;;;5058429;28;20438;-83
2022/04/26 12:16:28;;;;;;;14.95;9.90;;;10.10;99.90;;;;;;5058418;28;20032;-83
2022/04/26 12:19:00;;;;;;;11.48;7.40;;;10.00;99.90;;;;;;5058094;28;20135;-84
2022/04/26 12:21:27;;;;;;;25.42;11.00;;;9.80;99.90;;;;;;5058065;28;20078;-84
2022/04/26 12:24:13;;;;;;;20.55;13.27;;;9.60;99.90;;;;;;5075162;28;20112;-83
2022/04/26 12:26:49;;;;;;;17.70;11.85;;;9.40;99.90;;;;;;5074666;28;20033;-83
2022/04/26 12:29:15;;;;;;;23.30;14.13;;;9.20;99.90;;;;;;5058018;28;20029;-83
2022/04/26 12:31:48;;;;;;;25.77;16.25;;;9.20;99.90;;;;;;5057817;28;20029;-85
2022/04/26 12:34:29;;;;;;;28.35;16.75;;;9.10;99.90;;;;;;5057650;28;20144;-84
2022/04/26 12:36:57;;;;;;;30.17;19.10;;;9.10;99.90;;;;;;5057784;28;20036;-83
2022/04/26 12:39:26;;;;;;;21.45;14.70;;;9.00;99.90;;;;;;5074211;28;20060;-83
2022/04/26 12:41:56;;;;;;;21.63;15.05;;;8.90;99.90;;;;;;5056650;28;20131;-83
2022/04/26 12:44:24;;;;;;;19.38;12.82;;;8.90;99.90;;;;;;5057781;28;20123;-83
2022/04/26 12:52:41;;;;;;;12.38;8.73;;;9.50;99.90;;;;;;5075787;28;20036;-84
2022/04/26 12:55:07;;;;;;;20.58;11.68;;;9.90;99.90;;;;;;5074369;28;20020;-84
2022/04/26 12:57:48;;;;;;;9.88;7.95;;;10.20;99.90;;;;;;5074335;28;20020;-84
2022/04/26 13:00:36;;;;;;;;;;;10.20;99.90;;;;;;5058012;28;20036;-84
2022/04/26 13:03:04;;;;;;;9.02;7.05;;;10.30;99.90;;;;;;5074425;28;20271;-83
2022/04/26 13:05:46;;;;;;;15.38;7.93;;;10.80;99.90;;;;;;5057558;28;20127;-83
2022/04/26 13:08:15;;;;;;;;;;;10.90;99.90;;;;;;5057667;28;20074;-84
2022/04/26 13:10:42;;;;;;;7.05;5.35;;;11.10;99.90;;;;;;5057411;28;20363;-84
2022/04/26 13:13:09;;;;;;;9.15;7.15;;;11.10;99.90;;;;;;5057427;28;20028;-83
2022/04/26 13:15:35;;;;;;;8.73;7.20;;;11.10;99.90;;;;;;5075203;28;20063;-83
2022/04/26 13:18:03;;;;;;;6.35;5.43;;;11.00;99.90;;;;;;5057148;28;20088;-83
2022/04/26 13:20:30;;;;;;;7.45;5.38;;;10.90;99.90;;;;;;5056644;28;20037;-83
2022/04/26 13:22:56;;;;;;;6.65;4.10;;;11.40;99.90;;;;;;5056981;28;20699;-84
2022/04/26 13:25:21;;;;;;;4.53;4.05;;;12.10;99.90;;;;;;5057237;28;20483;-83
2022/04/26 13:27:50;;;;;;;10.77;4.25;;;12.20;99.90;;;;;;5056650;28;20028;-83
2022/04/26 13:30:16;;;;;;;6.38;4.28;;;12.60;99.90;;;;;;5073462;28;20119;-83
2022/04/26 13:32:42;;;;;;;5.15;4.13;;;12.40;99.90;;;;;;5056864;28;20025;-83
2022/04/26 13:35:09;;;;;;;4.68;4.13;;;12.20;99.90;;;;;;5056647;28;20111;-84
2022/04/26 13:37:35;;;;;;;5.80;3.92;;;11.90;99.90;;;;;;5056724;28;20024;-83
2022/04/26 13:40:02;;;;;;;5.93;3.58;;;11.70;99.90;;;;;;5056474;28;20059;-84
2022/04/26 13:42:30;;;;;;;3.75;3.17;;;11.60;99.90;;;;;;5056221;28;20036;-84
2022/04/26 13:44:57;;;;;;;4.15;3.40;;;11.50;99.90;;;;;;5073418;28;20032;-83
2022/04/26 13:47:23;;;;;;;4.07;3.55;;;11.90;99.90;;;;;;5056722;28;20067;-83
2022/04/26 13:49:50;;;;;;;3.47;2.85;;;11.80;99.90;;;;;;5056807;28;20384;-84
2022/04/26 13:52:16;;;;;;;6.05;3.80;;;11.90;99.90;;;;;;5056621;28;20040;-83
2022/04/26 13:54:42;;;;;;;3.70;3.03;;;12.10;99.90;;;;;;5074519;28;20702;-83
2022/04/26 13:57:08;;;;;;;3.47;3.00;;;11.80;99.90;;;;;;5073023;28;20040;-84
2022/04/26 13:59:34;;;;;;;4.88;3.53;;;11.70;99.90;;;;;;5073067;28;20124;-83
2022/04/26 14:02:00;;;;;;;7.07;3.80;;;11.50;99.90;;;;;;5056448;28;20128;-83
2022/04/26 14:04:26;;;;;;;10.02;5.90;;;11.30;99.90;;;;;;5056059;28;20840;-84
2022/04/26 14:06:52;;;;;;;5.03;2.60;;;11.40;99.90;;;;;;5056063;28;20036;-83
2022/04/26 14:09:18;;;;;;;14.50;5.72;;;11.50;99.90;;;;;;5074108;28;20102;-84
2022/04/26 14:11:47;;;;;;;6.45;3.78;;;11.60;99.90;;;;;;5074010;28;20543;-83
2022/04/26 14:22:30;;;;;;;8.80;3.13;;;12.00;99.90;;;;;;5072376;28;20127;-83
2022/04/26 14:25:08;;;;;;;4.78;3.40;;;12.20;99.90;;;;;;5055974;28;20763;-83
2022/04/26 14:27:35;;;;;;;2.90;2.28;;;12.60;99.90;;;;;;5072579;28;20028;-83
2022/04/26 14:30:03;;;;;;;6.25;5.32;;;12.70;99.90;;;;;;5073548;28;20033;-84
2022/04/26 14:32:29;;;;;;;9.30;3.80;;;13.00;99.90;;;;;;5055690;28;20036;-83
2022/04/26 14:34:54;;;;;;;3.88;3.13;;;12.90;99.90;;;;;;5055871;28;20028;-84
2022/04/26 14:37:22;;;;;;;2.80;2.47;;;12.60;99.90;;;;;;5055476;28;20033;-83
2022/04/26 14:39:49;;;;;;;5.28;2.40;;;12.30;99.90;;;;;;5072258;28;20044;-83
2022/04/26 14:42:15;;;;;;;5.40;2.15;;;11.80;99.90;;;;;;5055654;28;20063;-83
2022/04/26 14:44:41;;;;;;;6.90;3.33;;;11.10;99.90;;;;;;5055488;28;20080;-83
2022/04/26 14:47:09;;;;;;;2.30;2.00;;;10.70;99.90;;;;;;5055045;28;20146;-83
2022/04/26 14:49:35;;;;;;;5.30;3.67;;;10.50;99.90;;;;;;5071929;28;20032;-83
2022/04/26 14:52:01;;;;;;;3.20;2.40;;;10.40;99.90;;;;;;5071653;28;20088;-82
2022/04/26 14:54:27;;;;;;;4.28;2.80;;;10.20;99.90;;;;;;5071736;28;20033;-83
2022/04/26 14:56:53;;;;;;;5.82;3.08;;;10.10;99.90;;;;;;5054730;28;20031;-84
2022/04/26 14:59:19;;;;;;;4.35;2.83;;;10.10;99.90;;;;;;5054959;28;20025;-84
2022/04/26 15:01:48;;;;;;;3.75;2.80;;;10.20;99.90;;;;;;5071204;28;20033;-83
2022/04/26 15:04:15;;;;;;;4.13;2.90;;;10.20;99.90;;;;;;5053689;28;20051;-84
2022/04/26 15:06:41;;;;;;;5.88;3.67;;;10.30;99.90;;;;;;5054086;28;20064;-84
2022/04/26 15:16:37;;;;;;;5.43;2.67;;;10.70;99.90;;;;;;5071491;28;20047;-83
2022/04/26 15:17:21;;;;;;;3.67;3.03;;;11.20;99.90;;;;;;5071181;28;20545;-84
2022/04/26 15:19:48;;;;;;;6.88;2.55;;;11.60;99.90;;;;;;5054891;28;20134;-84
2022/04/26 15:22:14;;;;;;;4.10;3.08;;;11.60;99.90;;;;;;5071464;28;20770;-84
2022/04/26 15:24:40;;;;;;;5.40;2.38;;;11.50;99.90;;;;;;5054604;28;20723;-83
2022/04/26 15:27:06;;;;;;;3.58;2.05;;;11.40;99.90;;;;;;5053871;28;20106;-83
2022/04/26 15:29:32;;;;;;;3.15;2.70;;;11.30;99.90;;;;;;5071218;28;20443;-84
2022/04/26 15:31:58;;;;;;;6.15;2.80;;;11.10;99.90;;;;;;5072388;28;20102;-84
2022/04/26 15:34:23;;;;;;;3.42;2.45;;;10.80;99.90;;;;;;5054100;28;20455;-83
2022/04/26 15:37:06;;;;;;;2.97;2.53;;;10.60;99.90;;;;;;5053835;28;20025;-84
2022/04/26 15:39:32;;;;;;;4.22;2.80;;;10.60;99.90;;;;;;5053975;28;20629;-83
2022/04/26 15:41:59;;;;;;;7.97;5.00;;;10.50;99.90;;;;;;5054265;28;20112;-84
2022/04/26 15:44:25;;;;;;;5.97;3.38;;;10.40;99.90;;;;;;5054574;28;20519;-83
2022/04/26 15:46:54;;;;;;;3.05;2.17;;;10.40;99.90;;;;;;5072370;28;20021;-83
2022/04/26 15:49:29;;;;;;;4.15;2.70;;;10.50;99.90;;;;;;5054511;28;20071;-84
2022/04/26 15:51:57;;;;;;;6.28;3.17;;;10.70;99.90;;;;;;5054618;28;20688;-84
2022/04/26 15:54:23;;;;;;;3.75;2.33;;;10.70;99.90;;;;;;5054711;28;20761;-84
2022/04/26 15:56:48;;;;;;;3.53;2.60;;;10.80;99.90;;;;;;5071167;28;20033;-84
2022/04/26 15:59:14;;;;;;;7.53;3.13;;;11.00;99.90;;;;;;5054304;28;20085;-83
2022/04/26 16:01:40;;;;;;;2.65;2.30;;;11.00;99.90;;;;;;5054307;28;20031;-83
2022/04/26 16:04:07;;;;;;;6.00;2.45;;;10.90;99.90;;;;;;5071477;28;20028;-83
2022/04/26 16:06:33;;;;;;;3.28;2.67;;;10.70;99.90;;;;;;5054283;28;20082;-84
2022/04/26 16:22:39;;;;;;;3.40;2.25;;;9.80;99.90;;;;;;5074065;28;20115;-83
2022/04/26 16:25:07;;;;;;;3.25;2.50;;;9.60;99.90;;;;;;5057923;28;20750;-83
2022/04/26 16:27:33;;;;;;;4.53;2.83;;;9.50;99.90;;;;;;5057845;28;20039;-83
2022/04/26 16:30:00;;;;;;;3.60;2.20;;;9.30;99.90;;;;;;5057936;28;20029;-83
2022/04/26 16:32:29;;;;;;;2.50;2.05;;;9.20;99.90;;;;;;5057285;28;20043;-84
2022/04/26 16:34:57;;;;;;;2.58;2.33;;;9.20;99.90;;;;;;5073464;28;20400;-84
2022/04/26 16:37:24;;;;;;;2.95;2.42;;;9.10;99.90;;;;;;5057153;28;20123;-83
2022/04/26 16:39:50;;;;;;;3.00;2.15;;;9.10;99.90;;;;;;5057699;28;20116;-83
2022/04/26 16:42:16;;;;;;;2.72;2.30;;;9.20;99.90;;;;;;5074229;28;20480;-83
2022/04/26 16:44:42;;;;;;;2.60;2.40;;;9.30;99.90;;;;;;5075733;28;20028;-83
2022/04/26 16:47:10;;;;;;;2.53;1.95;;;9.40;99.90;;;;;;5057249;28;20027;-84
2022/04/26 16:49:36;;;;;;;2.75;2.38;;;9.50;99.90;;;;;;5058162;28;20102;-84
2022/04/26 16:52:04;;;;;;;4.78;2.97;;;9.50;99.90;;;;;;5074580;28;20060;-84
2022/04/26 16:54:30;;;;;;;4.03;2.67;;;9.40;99.90;;;;;;5057737;28;20059;-84
2022/04/26 16:56:56;;;;;;;3.30;2.60;;;9.20;99.90;;;;;;5057367;28;20045;-83
2022/04/26 16:59:23;;;;;;;3.15;2.63;;;9.20;99.90;;;;;;5057044;28;20029;-83
2022/04/26 17:01:49;;;;;;;4.18;2.95;;;9.10;99.90;;;;;;5074013;28;20039;-83
2022/04/26 17:04:15;;;;;;;4.55;2.72;;;9.00;99.90;;;;;;5056890;28;20025;-84
2022/04/26 17:06:41;;;;;;;3.88;2.97;;;9.00;99.90;;;;;;5056627;28;20110;-83
2022/04/26 17:09:07;;;;;;;3.58;2.95;;;9.10;99.90;;;;;;5072719;28;20129;-83
2022/04/26 17:11:42;;;;;;;5.25;2.90;;;9.00;99.90;;;;;;5074251;28;20033;-83
2022/04/26 17:14:19;;;;;;;6.97;3.25;;;8.90;99.90;;;;;;5073452;28;20510;-83
2022/04/26 17:16:47;;;;;;;5.88;3.47;;;8.90;99.90;;;;;;5056394;28;20048;-84
2022/04/26 17:19:17;;;;;;;5.20;3.75;;;8.80;99.90;;;;;;5056605;28;20131;-84
2022/04/26 17:21:43;;;;;;;2.97;2.65;;;8.90;99.90;;;;;;5056516;28;20029;-83
2022/04/26 17:26:56;;;;;;;3.53;2.45;;;8.90;99.90;;;;;;5072727;28;20032;-84